Time;durP1;ratioP1;P1;durP2;ratioP2;P2;SDS_P1;SDS_P2;PMS_P1;PMS_P2;Temp;Humidity;BMP_temperature;BMP_pressure;BME280_temperature;BME280_humidity;BME280_pressure;Samples;Min_cycle;Max_cycle;Signal;HPM_P1;HPM_P2
2022/04/26 03:36:36;;;;;;;70.50;20.42;;;;;;;15.56;66.63;100323.22;5053816;28;20052;-85
2022/04/26 03:39:01;;;;;;;50.65;19.08;;;;;;;15.52;66.82;100310.13;5053498;28;20017;-84
2022/04/26 03:41:26;;;;;;;34.92;17.83;;;;;;;15.60;67.07;100323.69;5053632;28;20545;-85
2022/04/26 03:43:52;;;;;;;56.47;17.20;;;;;;;15.57;66.82;100316.75;5053531;28;20031;-85
2022/04/26 03:46:17;;;;;;;56.38;17.88;;;;;;;15.58;66.32;100321.16;5053892;28;20021;-85
2022/04/26 03:48:43;;;;;;;90.13;21.50;;;;;;;15.65;66.23;100332.22;5057587;28;20020;-85
2022/04/26 03:51:08;;;;;;;41.88;16.85;;;;;;;15.68;66.18;100331.88;5056835;28;20025;-86
2022/04/26 03:53:34;;;;;;;89.30;19.75;;;;;;;15.75;66.05;100332.91;5057652;28;20024;-85
2022/04/26 03:55:59;;;;;;;50.78;15.98;;;;;;;15.70;65.56;100333.41;5057384;28;20012;-85
2022/04/26 03:58:26;;;;;;;46.70;15.70;;;;;;;15.77;64.95;100333.59;5057372;28;20024;-85
2022/04/26 04:00:52;;;;;;;59.15;15.80;;;;;;;15.85;64.71;100344.47;5057162;28;20020;-85
2022/04/26 04:03:18;;;;;;;46.42;15.27;;;;;;;15.88;64.71;100330.56;5055762;28;20021;-82
2022/04/26 04:05:44;;;;;;;64.28;16.33;;;;;;;15.98;64.14;100328.56;5055685;28;20154;-79
2022/04/26 04:08:09;;;;;;;45.08;13.85;;;;;;;16.07;63.61;100321.28;5055577;28;20424;-81
2022/04/26 04:10:34;;;;;;;60.10;14.10;;;;;;;16.08;63.40;100317.56;5056667;28;20395;-87
2022/04/26 04:13:00;;;;;;;48.17;12.15;;;;;;;16.16;63.33;100328.41;5055347;28;20483;-81
2022/04/26 04:15:25;;;;;;;82.35;16.90;;;;;;;16.12;63.08;100344.19;5055973;28;20033;-80
2022/04/26 04:17:51;;;;;;;38.58;10.85;;;;;;;16.13;62.97;100340.47;5055197;28;20036;-79
2022/04/26 04:20:16;;;;;;;18.65;7.07;;;;;;;16.28;62.60;100346.91;5055170;28;20526;-80
2022/04/26 04:22:42;;;;;;;39.25;11.95;;;;;;;16.41;61.86;100342.84;5054571;28;20466;-80
2022/04/26 04:25:07;;;;;;;50.15;10.68;;;;;;;16.49;62.03;100340.97;5055390;28;20108;-81
2022/04/26 04:27:33;;;;;;;68.47;14.75;;;;;;;16.59;62.05;100347.13;5056300;28;20108;-82
2022/04/26 04:30:02;;;;;;;42.45;14.75;;;;;;;16.63;62.08;100339.50;5055258;28;20104;-82
2022/04/26 04:32:31;;;;;;;41.10;13.43;;;;;;;16.71;60.77;100348.47;5056638;28;20043;-82
2022/04/26 04:34:56;;;;;;;40.20;14.43;;;;;;;16.83;61.02;100362.56;5056016;28;20051;-82
2022/04/26 04:37:22;;;;;;;52.38;20.40;;;;;;;16.74;61.60;100371.72;5056432;28;20025;-86
2022/04/26 04:39:49;;;;;;;64.05;22.95;;;;;;;16.81;62.26;100370.03;5058313;28;20035;-81
2022/04/26 04:42:15;;;;;;;52.47;20.15;;;;;;;17.00;62.14;100380.53;5060692;28;20466;-83
2022/04/26 04:44:40;;;;;;;46.92;18.73;;;;;;;17.01;61.85;100381.38;5055115;28;20025;-82
2022/04/26 04:47:06;;;;;;;50.10;18.23;;;;;;;17.12;61.64;100378.31;5054549;28;20031;-82
2022/04/26 04:49:31;;;;;;;41.13;17.33;;;;;;;17.11;61.44;100380.19;5054871;28;20025;-82
2022/04/26 04:51:56;;;;;;;37.42;18.42;;;;;;;17.15;61.33;100375.25;5054608;28;20024;-84
2022/04/26 04:54:22;;;;;;;30.98;15.82;;;;;;;17.16;61.59;100383.22;5056254;28;20167;-86
2022/04/26 04:56:48;;;;;;;34.22;15.23;;;;;;;17.04;61.50;100354.72;5057851;28;20025;-86
2022/04/26 04:59:14;;;;;;;38.42;16.08;;;;;;;17.22;61.11;100385.25;5054654;28;20028;-83
2022/04/26 05:01:39;;;;;;;52.28;16.70;;;;;;;17.19;61.27;100374.72;5057324;28;20432;-84
2022/04/26 05:04:04;;;;;;;38.80;16.08;;;;;;;17.25;61.08;100384.03;5077248;28;20028;-83
2022/04/26 05:06:30;;;;;;;60.53;23.55;;;;;;;17.28;60.89;100394.56;5075480;28;20045;-84
2022/04/26 05:08:57;;;;;;;54.97;16.55;;;;;;;17.11;61.06;100403.78;5068146;28;20024;-87
2022/04/26 05:11:22;;;;;;;42.65;15.68;;;;;;;17.16;61.09;100421.25;5064842;28;20055;-84
2022/04/26 05:13:48;;;;;;;47.47;15.10;;;;;;;17.29;60.54;100410.72;5067809;28;20025;-85
2022/04/26 05:16:13;;;;;;;51.25;14.23;;;;;;;17.48;59.83;100405.91;5072107;28;20525;-85
2022/04/26 05:18:38;;;;;;;36.28;14.70;;;;;;;17.62;59.48;100402.47;5071135;28;20024;-85
2022/04/26 05:21:09;;;;;;;49.00;15.48;;;;;;;17.70;59.56;100413.34;5069743;28;20029;-84
2022/04/26 05:26:19;;;;;;;33.50;14.95;;;;;;;17.72;58.76;100431.19;5054569;28;20094;-85
2022/04/26 05:28:44;;;;;;;46.47;14.70;;;;;;;17.83;58.59;100432.66;5054367;28;20021;-85
2022/04/26 05:31:10;;;;;;;49.85;14.93;;;;;;;17.83;58.30;100430.78;5054779;28;20017;-85
2022/04/26 05:33:35;;;;;;;56.05;16.05;;;;;;;17.87;58.29;100444.91;5053138;28;20487;-85
2022/04/26 05:36:02;;;;;;;54.55;15.65;;;;;;;17.85;58.40;100433.34;5054591;28;20048;-85
2022/04/26 05:38:27;;;;;;;56.75;15.13;;;;;;;17.92;58.55;100434.31;5053923;28;20568;-84
2022/04/26 05:40:53;;;;;;;68.07;15.60;;;;;;;17.93;58.43;100419.69;5053904;28;20029;-83
2022/04/26 05:43:18;;;;;;;47.47;13.93;;;;;;;18.02;58.52;100437.69;5054383;28;20051;-83
2022/04/26 05:45:44;;;;;;;46.20;17.80;;;;;;;17.92;58.98;100437.91;5054079;28;20465;-84
2022/04/26 05:48:11;;;;;;;45.00;18.33;;;;;;;17.88;59.27;100422.97;5053391;28;20087;-84
2022/04/26 05:50:37;;;;;;;40.90;16.48;;;;;;;17.86;60.05;100411.41;5054659;28;20021;-85
2022/04/26 05:53:03;;;;;;;62.40;16.92;;;;;;;17.89;60.06;100399.31;5053822;28;20115;-85
2022/04/26 05:55:28;;;;;;;74.43;15.82;;;;;;;17.90;59.60;100403.72;5054199;28;20462;-83
2022/04/26 05:57:54;;;;;;;69.18;17.40;;;;;;;17.95;59.42;100402.16;5052805;28;20025;-85
2022/04/26 06:00:19;;;;;;;61.65;17.50;;;;;;;17.80;59.65;100401.22;5054441;28;20029;-85
2022/04/26 06:02:44;;;;;;;59.75;18.45;;;;;;;17.70;59.52;100405.19;5054860;28;20036;-86
2022/04/26 06:05:10;;;;;;;36.60;14.50;;;;;;;17.82;58.87;100464.50;5054385;28;20028;-85
2022/04/26 06:07:36;;;;;;;41.85;15.80;;;;;;;17.78;58.91;100448.69;5053897;28;20475;-84
2022/04/26 06:10:02;;;;;;;32.17;13.15;;;;;;;17.74;59.09;100471.81;5053273;28;20025;-83
2022/04/26 06:12:28;;;;;;;28.63;13.68;;;;;;;17.56;59.44;100485.63;5052430;28;20029;-85
2022/04/26 06:14:57;;;;;;;46.55;10.85;;;;;;;17.51;58.83;100503.44;5052408;28;20035;-84
2022/04/26 06:17:23;;;;;;;24.98;9.98;;;;;;;17.47;58.43;100510.25;5052460;28;20040;-84
2022/04/26 06:19:49;;;;;;;24.98;8.20;;;;;;;17.42;58.30;100533.38;5051943;28;20025;-83
2022/04/26 06:22:15;;;;;;;19.55;8.48;;;;;;;17.46;58.24;100538.47;5052489;28;20433;-83
2022/04/26 06:24:40;;;;;;;33.15;8.88;;;;;;;17.38;58.29;100532.03;5052097;28;20024;-83
2022/04/26 06:27:06;;;;;;;27.30;9.00;;;;;;;17.26;58.62;100527.94;5051961;28;20031;-83
2022/04/26 06:29:32;;;;;;;43.92;9.40;;;;;;;17.39;58.66;100524.72;5050920;28;20059;-83
2022/04/26 06:31:57;;;;;;;26.48;8.02;;;;;;;17.39;58.51;100501.09;5070615;28;20024;-82
2022/04/26 06:34:23;;;;;;;21.50;7.78;;;;;;;17.43;58.82;100482.53;5056099;28;20025;-83
2022/04/26 06:36:48;;;;;;;25.73;7.47;;;;;;;17.45;58.82;100482.38;5052068;28;20127;-83
2022/04/26 06:39:13;;;;;;;24.67;7.63;;;;;;;17.37;59.45;100469.66;5052961;28;20025;-84
2022/04/26 06:41:40;;;;;;;41.22;10.40;;;;;;;17.31;60.80;100463.03;5070816;28;20077;-83
2022/04/26 06:44:05;;;;;;;25.80;10.63;;;;;;;17.39;62.08;100445.88;5064417;28;20101;-84
2022/04/26 06:46:31;;;;;;;35.85;9.40;;;;;;;17.33;63.93;100449.28;5057586;28;20052;-84
2022/04/26 06:48:58;;;;;;;37.85;13.20;;;;;;;17.18;63.70;100464.59;5051648;28;20116;-85
2022/04/26 06:51:25;;;;;;;31.88;10.43;;;;;;;17.09;64.66;100488.22;5051956;28;20471;-84
2022/04/26 06:53:51;;;;;;;35.30;9.57;;;;;;;17.06;65.09;100479.53;5052091;28;20035;-84
2022/04/26 06:56:18;;;;;;;21.52;11.10;;;;;;;17.20;63.41;100473.41;5051892;28;20029;-85
2022/04/26 06:58:43;;;;;;;22.77;9.20;;;;;;;17.24;65.37;100527.28;5052346;28;20025;-83
2022/04/26 07:01:09;;;;;;;29.52;10.13;;;;;;;17.29;66.02;100530.31;5052030;28;20104;-85
2022/04/26 07:03:34;;;;;;;25.33;9.48;;;;;;;17.27;65.61;100532.38;5052179;28;20091;-84
2022/04/26 07:06:00;;;;;;;29.60;9.40;;;;;;;17.35;64.65;100529.63;5051279;28;20036;-84
2022/04/26 07:08:25;;;;;;;30.13;8.45;;;;;;;17.69;64.82;100523.16;5052168;28;20024;-85
2022/04/26 07:10:50;;;;;;;23.60;7.85;;;;;;;17.83;63.87;100511.56;5052445;28;20021;-84
2022/04/26 07:13:18;;;;;;;26.83;8.20;;;;;;;18.06;62.98;100511.66;5051997;28;20032;-85
2022/04/26 07:15:44;;;;;;;21.25;8.30;;;;;;;18.21;61.57;100508.03;5053251;28;20020;-84
2022/04/26 07:18:12;;;;;;;32.13;9.43;;;;;;;18.39;60.91;100496.88;5052366;28;20458;-85
2022/04/26 07:20:38;;;;;;;18.88;7.32;;;;;;;18.44;61.19;100495.31;5052406;28;20029;-84
2022/04/26 07:23:03;;;;;;;14.82;6.57;;;;;;;18.53;59.88;100492.59;5055839;28;20095;-85
2022/04/26 07:25:29;;;;;;;11.38;6.70;;;;;;;18.70;60.05;100486.88;5056646;28;20025;-84
2022/04/26 07:27:54;;;;;;;17.33;7.78;;;;;;;18.89;59.76;100483.66;5055950;28;20043;-84
2022/04/26 07:30:20;;;;;;;17.23;5.18;;;;;;;19.02;56.26;100477.59;5056600;28;20112;-84
2022/04/26 07:35:29;;;;;;;21.33;5.28;;;;;;;19.41;57.43;100452.91;5055802;28;20128;-84
2022/04/26 07:38:06;;;;;;;20.67;5.25;;;;;;;19.52;55.65;100450.56;5055650;28;20459;-83
2022/04/26 07:40:32;;;;;;;19.70;5.18;;;;;;;19.58;56.13;100453.56;5055864;28;20041;-84
2022/04/26 07:42:58;;;;;;;26.00;5.47;;;;;;;19.58;55.94;100451.69;5055777;28;20037;-83
2022/04/26 07:45:24;;;;;;;21.20;5.85;;;;;;;19.74;54.71;100437.03;5055945;28;20041;-84
2022/04/26 07:47:50;;;;;;;35.17;6.03;;;;;;;19.81;54.28;100427.91;5056069;28;20099;-84
2022/04/26 07:50:15;;;;;;;23.35;5.07;;;;;;;20.05;53.70;100441.25;5055385;28;20467;-84
2022/04/26 07:52:41;;;;;;;21.08;5.05;;;;;;;20.15;52.13;100446.38;5055797;28;20082;-84
2022/04/26 07:55:07;;;;;;;22.73;3.85;;;;;;;20.07;51.09;100460.16;5056399;28;20467;-84
2022/04/26 07:57:33;;;;;;;22.90;5.00;;;;;;;20.21;51.45;100478.41;5055714;28;20024;-84
2022/04/26 07:59:58;;;;;;;9.02;3.25;;;;;;;20.39;50.67;100503.47;5054870;28;20044;-84
2022/04/26 08:02:24;;;;;;;16.08;2.53;;;;;;;20.61;50.80;100518.00;5055100;28;20028;-84
2022/04/26 08:04:50;;;;;;;104.57;8.25;;;;;;;20.81;50.77;100510.91;5055385;28;20513;-84
2022/04/26 08:07:15;;;;;;;17.15;3.30;;;;;;;20.95;49.76;100515.44;5056055;28;20064;-85
2022/04/26 08:09:43;;;;;;;7.43;2.95;;;;;;;21.06;48.86;100517.69;5055832;28;20082;-84
2022/04/26 08:12:08;;;;;;;25.35;4.75;;;;;;;21.27;48.93;100522.34;5055690;28;20040;-86
2022/04/26 08:14:34;;;;;;;68.97;8.00;;;;;;;21.51;49.55;100521.91;5055512;28;20451;-83
2022/04/26 08:17:00;;;;;;;23.85;4.45;;;;;;;21.78;49.28;100520.22;5066431;28;20037;-84
2022/04/26 08:19:25;;;;;;;22.48;4.22;;;;;;;21.73;47.10;100513.66;5077597;28;20107;-83
2022/04/26 08:21:51;;;;;;;12.43;3.88;;;;;;;21.87;47.68;100498.97;5073019;28;20036;-84
2022/04/26 08:29:46;;;;;;;24.77;4.78;;;;;;;22.63;46.18;100528.06;5054941;28;20063;-85
2022/04/26 08:32:13;;;;;;;25.15;5.40;;;;;;;22.80;45.86;100517.63;5055041;28;20031;-84
2022/04/26 08:34:39;;;;;;;27.20;5.85;;;;;;;22.98;46.19;100523.38;5054609;28;20406;-84
2022/04/26 08:37:04;;;;;;;20.17;4.60;;;;;;;22.99;45.92;100522.31;5055087;28;20048;-84
2022/04/26 08:39:30;;;;;;;47.88;6.47;;;;;;;23.12;45.41;100516.84;5055562;28;20025;-83
2022/04/26 08:42:00;;;;;;;32.65;6.55;;;;;;;23.29;45.63;100509.91;5054433;28;20426;-85
2022/04/26 08:44:27;;;;;;;22.33;5.32;;;;;;;23.47;45.97;100503.81;5054228;28;20082;-84
2022/04/26 08:52:22;;;;;;;36.67;5.05;;;;;;;23.80;43.20;100510.97;5055088;28;20043;-84
2022/04/26 08:54:49;;;;;;;15.35;2.03;;;;;;;23.90;41.67;100509.69;5055374;28;20040;-85
2022/04/26 08:57:15;;;;;;;17.27;3.17;;;;;;;23.85;42.07;100485.63;5054554;28;20494;-84
2022/04/26 08:59:50;;;;;;;14.27;3.53;;;;;;;24.15;42.22;100514.31;5055402;28;20025;-86
2022/04/26 09:02:20;;;;;;;12.82;2.88;;;;;;;24.30;42.59;100523.16;5055451;28;20036;-85
2022/04/26 09:04:49;;;;;;;8.77;2.22;;;;;;;24.42;40.77;100515.06;5055245;28;20036;-86
2022/04/26 09:07:32;;;;;;;13.13;2.70;;;;;;;24.64;40.32;100518.38;5053744;28;20457;-85
2022/04/26 09:10:07;;;;;;;7.55;1.77;;;;;;;24.71;40.48;100514.50;5054358;28;20501;-86
2022/04/26 09:12:52;;;;;;;6.55;2.20;;;;;;;24.70;40.33;100514.75;5053404;28;20491;-85
2022/04/26 09:15:18;;;;;;;4.05;1.88;;;;;;;24.73;39.23;100523.41;5056301;28;20457;-86
2022/04/26 09:17:44;;;;;;;12.20;5.10;;;;;;;24.92;38.87;100531.78;5055277;28;20032;-86
2022/04/26 09:20:10;;;;;;;12.80;3.03;;;;;;;25.11;39.09;100522.56;5054754;28;20029;-86
2022/04/26 09:22:38;;;;;;;8.98;2.83;;;;;;;25.24;38.72;100519.72;5054747;28;20041;-86
2022/04/26 09:25:07;;;;;;;27.02;3.20;;;;;;;25.12;37.67;100516.84;5053100;28;20375;-85
2022/04/26 09:27:38;;;;;;;51.65;6.25;;;;;;;25.14;37.95;100541.38;5054129;28;20107;-85
2022/04/26 09:30:29;;;;;;;12.52;2.97;;;;;;;24.68;39.50;100539.69;5052576;28;20017;-85
2022/04/26 09:32:54;;;;;;;11.82;3.78;;;;;;;24.62;39.74;100531.47;5054204;28;20494;-85
2022/04/26 09:35:22;;;;;;;13.00;2.80;;;;;;;23.94;40.62;100516.44;5054887;28;20131;-85
2022/04/26 09:37:48;;;;;;;19.58;3.15;;;;;;;24.04;40.76;100522.31;5054466;28;20143;-86
2022/04/26 09:40:13;;;;;;;6.15;2.80;;;;;;;23.97;40.41;100521.53;5054533;28;20128;-86
2022/04/26 09:42:39;;;;;;;13.90;3.08;;;;;;;23.81;40.87;100531.91;5054081;28;20040;-87
2022/04/26 09:45:09;;;;;;;14.00;3.20;;;;;;;23.75;41.52;100534.66;5053058;28;20111;-87
2022/04/26 09:47:42;;;;;;;22.52;3.60;;;;;;;23.64;41.38;100511.41;5053854;28;20048;-84
2022/04/26 09:50:09;;;;;;;26.67;3.75;;;;;;;23.49;42.36;100516.28;5054926;28;20032;-83
2022/04/26 09:52:36;;;;;;;23.75;4.07;;;;;;;23.05;43.36;100526.97;5060057;28;20416;-85
2022/04/26 09:55:03;;;;;;;14.10;3.60;;;;;;;22.81;43.44;100536.63;5076818;28;20029;-84
2022/04/26 09:57:32;;;;;;;14.25;3.40;;;;;;;22.74;43.78;100533.88;5060402;28;20086;-84
2022/04/26 09:59:59;;;;;;;9.05;3.08;;;;;;;22.94;43.66;100530.31;5052589;28;20029;-84
2022/04/26 10:02:31;;;;;;;12.10;3.47;;;;;;;22.94;43.02;100535.78;5053628;28;20493;-85
2022/04/26 10:05:03;;;;;;;12.20;3.70;;;;;;;22.63;42.91;100512.47;5053428;28;20111;-84
2022/04/26 10:07:41;;;;;;;19.55;4.47;;;;;;;22.56;43.29;100506.13;5052941;28;20033;-84
2022/04/26 10:10:07;;;;;;;19.08;3.38;;;;;;;22.69;43.16;100511.69;5076045;28;20107;-83
2022/04/26 10:12:34;;;;;;;8.77;3.15;;;;;;;22.66;43.12;100524.94;5061676;28;20025;-83
2022/04/26 10:18:31;;;;;;;11.15;3.58;;;;;;;21.87;44.78;100537.31;5094230;22;20061;-86
2022/04/26 10:20:57;;;;;;;10.55;2.78;;;;;;;21.84;44.97;100534.97;4996395;28;20101;-85
2022/04/26 10:23:23;;;;;;;11.82;2.95;;;;;;;21.91;45.09;100541.41;4994403;28;20034;-84
2022/04/26 10:26:22;;;;;;;13.60;3.08;;;;;;;21.66;45.90;100539.09;4994146;28;20030;-85
2022/04/26 10:28:57;;;;;;;15.80;3.17;;;;;;;21.48;46.50;100544.19;5002669;28;20006;-85
2022/04/26 10:31:55;;;;;;;9.00;3.20;;;;;;;21.51;47.06;100543.81;4998137;28;20022;-85
2022/04/26 10:34:20;;;;;;;14.80;4.00;;;;;;;21.27;47.56;100546.94;4993483;28;20054;-84
2022/04/26 10:37:13;;;;;;;22.30;3.92;;;;;;;21.05;48.62;100537.00;4993293;28;20041;-85
2022/04/26 10:39:46;;;;;;;13.63;3.53;;;;;;;20.92;48.87;100537.72;4978461;28;20034;-86
2022/04/26 10:42:12;;;;;;;20.33;3.63;;;;;;;21.11;49.55;100541.72;4993722;28;20034;-85
2022/04/26 10:44:45;;;;;;;15.40;3.83;;;;;;;21.18;48.46;100550.88;4993369;28;20030;-85
2022/04/26 10:47:18;;;;;;;21.48;3.35;;;;;;;21.11;48.44;100534.38;4992779;28;20030;-85
2022/04/26 10:49:45;;;;;;;17.77;4.30;;;;;;;21.20;49.39;100545.19;4993012;28;20054;-84
2022/04/26 10:54:55;;;;;;;25.08;3.90;;;;;;;21.43;48.56;100540.38;4993690;28;20124;-85
2022/04/26 10:57:45;;;;;;;14.63;3.75;;;;;;;21.63;47.66;100542.22;5001489;28;20092;-85
2022/04/26 11:00:27;;;;;;;12.70;2.47;;;;;;;21.72;47.07;100551.13;4993268;28;20041;-85
2022/04/26 11:02:59;;;;;;;22.90;3.70;;;;;;;21.85;47.02;100533.94;4992890;28;20480;-84
2022/04/26 11:05:25;;;;;;;;;;;;;;;21.58;46.50;100550.19;4994755;28;20042;-83
2022/04/26 11:07:52;;;;;;;10.68;3.30;;;;;;;21.22;46.47;100522.09;4992921;28;20383;-83
2022/04/26 11:10:23;;;;;;;23.73;3.42;;;;;;;21.04;47.21;100525.22;4993061;28;20030;-86
2022/04/26 11:12:50;;;;;;;15.75;4.38;;;;;;;21.30;47.67;100537.50;4991665;28;20030;-86
2022/04/26 11:15:19;;;;;;;18.75;3.20;;;;;;;21.47;47.00;100542.50;4993749;28;20386;-85
2022/04/26 11:17:45;;;;;;;12.30;3.55;;;;;;;21.70;46.64;100537.66;4993427;28;20065;-86
2022/04/26 11:20:18;;;;;;;10.77;2.85;;;;;;;21.93;45.92;100547.50;4994594;28;20026;-86
2022/04/26 11:22:49;;;;;;;13.15;2.88;;;;;;;21.97;45.83;100543.34;4994029;28;20036;-86
2022/04/26 11:28:09;;;;;;;13.98;3.45;;;;;;;21.69;45.63;100546.03;4999476;28;20167;-85
2022/04/26 11:30:45;;;;;;;6.38;2.38;;;;;;;21.77;45.55;100537.69;5009188;28;20026;-85
2022/04/26 11:33:11;;;;;;;15.13;3.33;;;;;;;21.89;45.84;100541.63;5006975;28;20053;-85
2022/04/26 11:35:38;;;;;;;9.38;3.08;;;;;;;21.60;45.25;100541.75;5005162;28;20027;-85
2022/04/26 11:38:11;;;;;;;16.30;4.88;;;;;;;21.60;45.92;100537.13;5006883;28;20058;-85
2022/04/26 11:40:41;;;;;;;6.25;2.92;;;;;;;21.47;46.87;100519.75;5007541;28;20045;-86
2022/04/26 11:43:12;;;;;;;20.90;3.88;;;;;;;21.36;47.54;100528.50;5006860;28;20034;-84
2022/04/26 11:45:39;;;;;;;14.48;4.18;;;;;;;21.20;47.83;100523.28;4998294;28;20023;-86
2022/04/26 11:48:09;;;;;;;9.13;4.03;;;;;;;21.24;47.67;100528.19;4995670;28;20109;-86
2022/04/26 11:50:35;;;;;;;13.65;3.40;;;;;;;21.13;48.38;100515.88;4994877;28;20027;-84
2022/04/26 11:53:09;;;;;;;21.58;3.78;;;;;;;20.80;49.17;100519.28;4992393;28;20462;-84
2022/04/26 11:55:43;;;;;;;9.65;3.03;;;;;;;20.81;48.86;100530.03;4993126;28;20031;-85
2022/04/26 11:58:15;;;;;;;17.48;2.88;;;;;;;20.85;48.86;100536.81;5002917;28;20034;-84
2022/04/26 12:00:59;;;;;;;118.68;13.68;;;;;;;20.84;48.83;100534.25;4993938;28;20422;-85
2022/04/26 12:03:28;;;;;;;12.02;3.60;;;;;;;20.68;49.29;100520.81;4993499;28;20480;-85
2022/04/26 12:05:59;;;;;;;18.90;3.85;;;;;;;20.78;49.07;100488.56;4993155;28;20026;-85
2022/04/26 12:08:26;;;;;;;15.35;4.15;;;;;;;21.16;49.12;100509.16;4997413;28;20034;-85
2022/04/26 12:10:51;;;;;;;8.80;3.22;;;;;;;21.37;48.77;100500.97;4997322;28;20053;-84
2022/04/26 12:13:30;;;;;;;15.38;3.20;;;;;;;21.61;49.36;100496.94;4996836;28;20448;-85
2022/04/26 12:16:16;;;;;;;7.13;2.83;;;;;;;21.79;48.00;100508.22;5015853;28;20045;-87
2022/04/26 12:18:56;;;;;;;14.73;3.08;;;;;;;22.09;47.53;100504.22;5018734;28;20062;-87
2022/04/26 12:21:26;;;;;;;27.15;4.22;;;;;;;22.31;47.23;100502.22;4996930;28;20504;-85
2022/04/26 12:24:11;;;;;;;15.98;3.65;;;;;;;22.24;46.72;100493.13;4997881;28;20514;-86
2022/04/26 12:26:48;;;;;;;20.00;4.30;;;;;;;22.26;46.53;100482.81;4999679;28;20018;-87
2022/04/26 12:29:14;;;;;;;12.80;3.00;;;;;;;22.50;45.28;100501.47;4998557;28;20026;-86
2022/04/26 12:31:47;;;;;;;11.65;3.00;;;;;;;22.45;44.97;100500.38;4997282;28;20077;-85
2022/04/26 12:34:18;;;;;;;15.88;3.28;;;;;;;22.65;43.97;100504.09;5004259;28;20027;-86
2022/04/26 12:36:57;;;;;;;18.85;2.90;;;;;;;22.64;42.55;100503.19;5004123;28;20053;-89
2022/04/26 12:39:25;;;;;;;9.15;2.55;;;;;;;22.82;42.35;100499.91;4997305;28;20033;-88
2022/04/26 12:41:58;;;;;;;16.75;2.70;;;;;;;22.81;41.30;100494.66;4998981;28;20057;-85
2022/04/26 12:44:24;;;;;;;5.00;1.95;;;;;;;22.88;40.41;100487.25;4996194;28;20026;-85
2022/04/26 12:52:47;;;;;;;28.95;3.28;;;;;;;23.41;39.22;100489.03;4998220;28;20037;-85
2022/04/26 12:55:37;;;;;;;18.55;3.63;;;;;;;23.45;39.19;100486.72;4983237;28;20034;-87
2022/04/26 12:58:05;;;;;;;22.73;2.90;;;;;;;23.48;40.17;100478.06;4979780;28;20114;-87
2022/04/26 13:00:31;;;;;;;8.35;2.72;;;;;;;23.46;39.83;100481.00;4998695;28;20030;-84
2022/04/26 13:03:02;;;;;;;7.20;2.65;;;;;;;23.45;39.09;100486.72;4996172;28;20022;-84
2022/04/26 13:05:34;;;;;;;9.95;1.52;;;;;;;23.33;39.47;100489.22;5005713;28;20050;-84
2022/04/26 13:08:00;;;;;;;16.10;8.25;;;;;;;23.12;39.77;100479.28;5002069;28;20461;-84
2022/04/26 13:10:25;;;;;;;5.68;2.42;;;;;;;23.29;39.44;100485.22;4995038;28;20049;-84
2022/04/26 13:12:51;;;;;;;13.38;2.38;;;;;;;22.98;38.82;100474.00;4995341;28;20481;-84
2022/04/26 13:15:17;;;;;;;16.65;2.53;;;;;;;22.75;39.26;100469.72;4995019;28;20022;-84
2022/04/26 13:17:44;;;;;;;18.90;3.72;;;;;;;22.64;39.53;100467.56;4995279;28;20057;-85
2022/04/26 13:20:12;;;;;;;10.30;1.92;;;;;;;22.81;38.71;100480.94;4994455;28;20416;-84
2022/04/26 13:22:37;;;;;;;10.05;2.55;;;;;;;22.67;38.57;100475.41;4995642;28;20505;-85
2022/04/26 13:25:04;;;;;;;9.15;2.00;;;;;;;22.64;38.54;100481.28;4996736;28;20026;-85
2022/04/26 13:27:31;;;;;;;17.50;1.95;;;;;;;22.59;38.83;100477.47;4994426;28;20420;-86
2022/04/26 13:29:57;;;;;;;5.03;2.00;;;;;;;22.41;38.08;100483.53;4996015;28;20019;-85
2022/04/26 13:32:22;;;;;;;6.40;1.95;;;;;;;22.54;38.40;100482.69;4996767;28;20496;-86
2022/04/26 13:34:48;;;;;;;8.10;2.00;;;;;;;22.58;38.36;100482.09;4993933;28;20065;-86
2022/04/26 13:37:14;;;;;;;10.07;1.27;;;;;;;22.59;38.17;100481.06;4996428;28;20026;-86
2022/04/26 13:39:40;;;;;;;6.05;1.73;;;;;;;22.68;38.11;100482.59;4996550;28;20033;-86
2022/04/26 13:42:07;;;;;;;6.30;1.77;;;;;;;22.73;38.04;100485.53;4996761;28;20463;-85
2022/04/26 13:44:33;;;;;;;7.18;1.90;;;;;;;22.64;38.39;100474.94;5008310;28;20026;-86
2022/04/26 13:46:58;;;;;;;9.40;1.63;;;;;;;22.62;39.13;100477.91;5006649;28;20046;-84
2022/04/26 13:49:24;;;;;;;14.18;1.77;;;;;;;22.73;39.00;100474.56;4997334;28;20404;-85
2022/04/26 13:51:50;;;;;;;20.58;2.28;;;;;;;22.72;38.53;100461.06;4996917;28;20033;-85
2022/04/26 13:54:16;;;;;;;18.35;1.83;;;;;;;22.74;39.15;100484.50;4996906;28;20505;-86
2022/04/26 13:56:42;;;;;;;8.50;1.85;;;;;;;22.70;38.97;100480.47;4995633;28;20412;-86
2022/04/26 13:59:08;;;;;;;26.05;2.72;;;;;;;22.62;39.35;100477.91;4997568;28;20080;-85
2022/04/26 14:01:34;;;;;;;11.38;2.60;;;;;;;22.69;39.82;100478.78;4999069;28;20472;-85
2022/04/26 14:04:05;;;;;;;11.93;3.08;;;;;;;22.52;40.14;100482.91;5013597;28;20032;-85
2022/04/26 14:06:32;;;;;;;12.15;2.63;;;;;;;22.55;40.19;100488.00;4994260;28;20038;-85
2022/04/26 14:08:57;;;;;;;18.08;3.25;;;;;;;22.66;39.87;100470.97;4994492;28;20031;-85
2022/04/26 14:11:24;;;;;;;3.55;1.63;;;;;;;22.58;39.81;100467.53;4996538;28;20088;-85
2022/04/26 14:22:02;;;;;;;16.10;3.72;;;;;;;22.67;39.64;100486.38;4994413;28;20476;-83
2022/04/26 14:24:28;;;;;;;22.75;2.75;;;;;;;22.48;40.51;100478.88;4994719;28;20026;-82
2022/04/26 14:26:53;;;;;;;32.38;4.75;;;;;;;22.41;40.28;100491.75;4994210;28;20408;-83
2022/04/26 14:29:19;;;;;;;16.20;2.38;;;;;;;22.27;40.74;100494.59;4994465;28;20034;-83
2022/04/26 14:31:45;;;;;;;23.83;3.40;;;;;;;22.20;41.03;100495.41;4993728;28;20022;-82
2022/04/26 14:34:11;;;;;;;20.40;4.60;;;;;;;21.93;41.77;100495.47;4994366;28;20618;-81
2022/04/26 14:36:37;;;;;;;18.17;3.78;;;;;;;21.65;41.93;100479.91;4994643;28;20056;-83
2022/04/26 14:39:03;;;;;;;14.45;2.97;;;;;;;21.67;42.06;100501.59;4995037;28;20109;-84
2022/04/26 14:41:29;;;;;;;22.13;8.05;;;;;;;21.45;42.74;100494.47;5002523;28;20707;-82
2022/04/26 14:43:54;;;;;;;11.60;3.03;;;;;;;21.26;43.67;100495.16;4995286;28;20049;-85
2022/04/26 14:46:20;;;;;;;29.73;2.88;;;;;;;21.19;43.85;100497.00;4994655;28;20030;-84
2022/04/26 14:49:02;;;;;;;34.85;4.82;;;;;;;20.87;44.47;100480.03;4991327;28;20188;-91
2022/04/26 14:51:29;;;;;;;16.90;3.95;;;;;;;20.76;44.90;100499.72;4986101;28;20402;-89
2022/04/26 14:53:55;;;;;;;16.75;3.03;;;;;;;20.46;45.04;100477.06;4992806;28;20507;-92
2022/04/26 14:56:20;;;;;;;16.42;4.03;;;;;;;20.27;45.22;100455.00;4999370;28;20102;-90
2022/04/26 14:58:49;;;;;;;14.95;3.30;;;;;;;20.37;45.52;100478.22;4992337;28;20037;-86
2022/04/26 15:01:18;;;;;;;23.15;3.13;;;;;;;20.46;45.88;100503.53;4985955;28;20449;-83
2022/04/26 15:03:44;;;;;;;12.63;3.00;;;;;;;20.56;45.40;100499.47;4992859;28;20030;-78
2022/04/26 15:06:11;;;;;;;16.60;2.40;;;;;;;20.51;45.64;100501.09;4991829;28;20041;-75
2022/04/26 15:11:20;;;;;;;18.33;2.70;;;;;;;20.30;46.06;100498.31;4982897;28;20049;-75
2022/04/26 15:16:39;;;;;;;26.05;3.28;;;;;;;20.14;46.40;100498.47;4981451;28;20137;-76
2022/04/26 15:19:06;;;;;;;6.18;2.67;;;;;;;20.02;46.54;100495.38;4978813;28;20050;-75
2022/04/26 15:21:32;;;;;;;29.38;6.70;;;;;;;20.07;46.49;100501.97;4980126;28;20179;-77
2022/04/26 15:23:57;;;;;;;24.73;4.50;;;;;;;20.08;46.76;100503.66;4994024;28;20164;-83
2022/04/26 15:26:24;;;;;;;20.35;3.33;;;;;;;20.03;47.19;100506.09;4994784;28;20029;-84
2022/04/26 15:28:50;;;;;;;14.70;4.35;;;;;;;19.98;47.17;100504.97;4994974;28;20022;-83
2022/04/26 15:31:18;;;;;;;11.77;3.13;;;;;;;19.95;47.42;100497.16;4993862;28;20019;-84
2022/04/26 15:33:45;;;;;;;15.10;4.00;;;;;;;19.94;47.49;100506.38;5012985;28;20068;-86
2022/04/26 15:36:11;;;;;;;17.65;3.53;;;;;;;19.89;47.45;100500.63;4993176;28;20022;-84
2022/04/26 15:38:37;;;;;;;9.15;3.63;;;;;;;19.69;47.76;100486.72;4998461;28;20030;-83
2022/04/26 15:41:05;;;;;;;8.70;2.88;;;;;;;19.63;48.02;100484.72;4995718;28;20029;-83